createdAt,value
2023-05-13T00:01:03.395Z,89.20
2023-05-13T00:03:30.935Z,89.10
2023-05-13T00:05:58.642Z,89.50
2023-05-13T00:08:26.064Z,90.00
2023-05-13T00:10:53.434Z,90.00
2023-05-13T00:13:21.301Z,90.40
2023-05-13T00:15:49.181Z,90.70
2023-05-13T00:18:16.733Z,91.10
2023-05-13T00:20:44.676Z,91.20
2023-05-13T00:23:12.455Z,91.40
2023-05-13T00:25:41.385Z,91.60
2023-05-13T00:28:08.808Z,91.80
2023-05-13T00:30:36.860Z,91.90
2023-05-13T00:33:04.666Z,92.10
2023-05-13T00:35:32.299Z,92.20
2023-05-13T00:37:59.780Z,92.20
2023-05-13T00:40:27.193Z,92.20
2023-05-13T00:42:55.003Z,92.20
2023-05-13T00:45:23.390Z,92.50
2023-05-13T00:47:51.842Z,92.60
2023-05-13T00:50:20.319Z,92.80
2023-05-13T00:52:50.745Z,92.90
2023-05-13T00:55:18.366Z,93.20
2023-05-13T00:57:45.694Z,93.40
2023-05-13T01:00:14.097Z,93.40
2023-05-13T01:03:27.914Z,93.40
2023-05-13T01:06:04.188Z,93.10
2023-05-13T01:08:49.948Z,92.80
2023-05-13T01:11:27.929Z,93.00
2023-05-13T01:14:22.802Z,93.40
2023-05-13T01:16:58.974Z,93.40
2023-05-13T01:19:50.872Z,93.60
2023-05-13T01:22:18.397Z,93.90
2023-05-13T01:24:46.133Z,94.00
2023-05-13T01:27:14.313Z,94.10
2023-05-13T01:29:41.952Z,94.20
2023-05-13T01:32:11.576Z,94.20
2023-05-13T01:34:40.798Z,94.20
2023-05-13T01:37:08.560Z,94.20
2023-05-13T01:39:39.128Z,94.40
2023-05-13T01:42:11.403Z,94.70
2023-05-13T01:44:39.105Z,95.20
2023-05-13T01:47:06.682Z,95.50
2023-05-13T01:49:34.186Z,96.00
2023-05-13T01:52:01.590Z,96.30
2023-05-13T01:54:29.724Z,96.50
2023-05-13T01:57:03.743Z,97.00
2023-05-13T01:59:31.437Z,97.50
2023-05-13T02:01:59.906Z,97.80
2023-05-13T02:04:27.805Z,98.50
2023-05-13T02:06:55.323Z,99.00
2023-05-13T02:09:23.715Z,99.40
2023-05-13T02:11:51.214Z,99.90
2023-05-13T02:14:18.733Z,99.90
2023-05-13T02:16:46.399Z,99.90
2023-05-13T02:19:14.130Z,99.90
2023-05-13T02:21:43.841Z,99.90
2023-05-13T02:24:11.874Z,99.90
2023-05-13T02:26:41.605Z,99.90
2023-05-13T02:29:09.402Z,99.90
2023-05-13T02:31:37.094Z,99.90
2023-05-13T02:34:04.630Z,99.90
2023-05-13T02:36:32.265Z,99.90
2023-05-13T02:39:00.172Z,99.90
2023-05-13T02:41:27.884Z,99.90
2023-05-13T02:43:55.426Z,99.90
2023-05-13T02:46:23.222Z,99.90
2023-05-13T02:48:50.860Z,99.90
2023-05-13T02:51:18.265Z,99.90
2023-05-13T02:53:45.972Z,99.90
2023-05-13T02:56:16.409Z,99.90
2023-05-13T02:58:44.140Z,99.90
2023-05-13T03:01:12.111Z,99.90
2023-05-13T03:03:40.212Z,99.90
2023-05-13T03:06:08.101Z,99.90
2023-05-13T03:08:35.460Z,99.90
2023-05-13T03:11:03.594Z,99.90
2023-05-13T03:13:31.204Z,99.90
2023-05-13T03:15:58.933Z,99.90
2023-05-13T03:18:28.818Z,99.90
2023-05-13T03:20:56.412Z,99.90
2023-05-13T03:23:23.883Z,99.90
2023-05-13T03:25:54.422Z,99.90
2023-05-13T03:28:21.941Z,99.90
2023-05-13T03:30:49.445Z,99.90
2023-05-13T03:33:19.401Z,99.90
2023-05-13T03:35:49.181Z,99.90
2023-05-13T03:38:19.551Z,99.90
2023-05-13T03:40:50.352Z,99.90
2023-05-13T03:43:18.042Z,99.90
2023-05-13T03:45:51.737Z,99.90
2023-05-13T03:48:21.771Z,99.90
2023-05-13T03:50:49.208Z,99.90
2023-05-13T03:53:18.711Z,99.90
2023-05-13T03:55:46.396Z,99.90
2023-05-13T03:58:16.459Z,99.90
2023-05-13T04:00:46.897Z,99.90
2023-05-13T04:03:16.539Z,99.90
2023-05-13T04:05:47.898Z,99.90
2023-05-13T04:08:15.844Z,99.90
2023-05-13T04:10:44.196Z,99.90
2023-05-13T04:13:11.995Z,99.90
2023-05-13T04:15:39.589Z,99.90
2023-05-13T04:18:07.543Z,99.90
2023-05-13T04:20:38.885Z,99.90
2023-05-13T04:23:07.051Z,99.90
2023-05-13T04:25:37.327Z,99.90
2023-05-13T04:28:05.632Z,99.90
2023-05-13T04:30:37.113Z,99.90
2023-05-13T04:33:04.954Z,99.90
2023-05-13T04:35:33.595Z,99.90
2023-05-13T04:38:04.834Z,99.90
2023-05-13T04:40:32.774Z,99.90
2023-05-13T04:43:06.410Z,99.90
2023-05-13T04:45:40.976Z,99.90
2023-05-13T04:48:13.775Z,99.90
2023-05-13T04:50:46.966Z,99.90
2023-05-13T04:53:15.928Z,99.90
2023-05-13T04:55:47.694Z,99.90
2023-05-13T04:58:15.041Z,99.30
2023-05-13T05:00:42.501Z,98.60
2023-05-13T05:03:09.868Z,97.80
2023-05-13T05:05:37.977Z,97.80
2023-05-13T05:08:06.250Z,97.30
2023-05-13T05:10:34.508Z,95.10
2023-05-13T05:13:02.507Z,94.10
2023-05-13T05:15:30.045Z,94.10
2023-05-13T05:18:00.583Z,92.70
2023-05-13T05:20:28.558Z,91.20
2023-05-13T05:22:59.739Z,90.50
2023-05-13T05:25:29.487Z,89.80
2023-05-13T05:27:57.335Z,90.10
2023-05-13T05:30:25.316Z,89.40
2023-05-13T05:32:59.893Z,88.40
2023-05-13T05:35:27.442Z,88.10
2023-05-13T05:37:56.589Z,87.50
2023-05-13T05:40:25.293Z,86.90
2023-05-13T05:42:52.907Z,85.10
2023-05-13T05:45:20.776Z,85.00
2023-05-13T05:48:13.774Z,84.30
2023-05-13T05:50:41.745Z,82.40
2023-05-13T05:53:11.156Z,83.10
2023-05-13T05:55:39.981Z,82.40
2023-05-13T05:58:10.890Z,82.10
2023-05-13T06:00:38.990Z,80.50
2023-05-13T06:03:06.648Z,80.50
2023-05-13T06:05:35.467Z,80.10
2023-05-13T06:08:02.729Z,80.20
2023-05-13T06:10:30.958Z,80.20
2023-05-13T06:12:58.540Z,80.90
2023-05-13T06:15:25.768Z,79.50
2023-05-13T06:17:52.969Z,78.90
2023-05-13T06:20:20.505Z,78.40
2023-05-13T06:22:48.177Z,78.00
2023-05-13T06:25:15.749Z,76.90
2023-05-13T06:27:42.877Z,76.70
2023-05-13T06:30:10.832Z,75.80
2023-05-13T06:32:50.267Z,75.20
2023-05-13T06:35:24.791Z,74.00
2023-05-13T06:37:52.067Z,73.90
2023-05-13T06:40:19.968Z,74.00
2023-05-13T06:42:47.791Z,73.90
2023-05-13T06:45:23.453Z,73.30
2023-05-13T06:47:51.947Z,72.50
2023-05-13T06:50:20.203Z,72.30
2023-05-13T06:52:47.920Z,71.90
2023-05-13T06:55:16.668Z,71.40
2023-05-13T06:57:46.734Z,70.80
2023-05-13T07:00:15.762Z,71.30
2023-05-13T07:02:43.247Z,71.10
2023-05-13T07:05:11.824Z,71.20
2023-05-13T07:07:39.074Z,70.70
2023-05-13T07:10:06.558Z,70.00
2023-05-13T07:12:33.932Z,70.20
2023-05-13T07:15:01.355Z,70.40
2023-05-13T07:17:28.872Z,68.40
2023-05-13T07:19:56.863Z,68.60
2023-05-13T07:22:24.526Z,68.80
2023-05-13T07:24:51.815Z,68.10
2023-05-13T07:27:18.935Z,67.80
2023-05-13T07:29:46.267Z,68.60
2023-05-13T07:32:13.780Z,67.60
2023-05-13T07:34:41.417Z,67.10
2023-05-13T07:37:08.629Z,67.30
2023-05-13T07:39:36.221Z,67.40
2023-05-13T07:42:04.052Z,67.60
2023-05-13T07:44:31.332Z,67.60
2023-05-13T07:46:58.586Z,66.30
2023-05-13T07:49:25.992Z,66.20
2023-05-13T07:51:53.182Z,66.20
2023-05-13T07:54:20.855Z,66.50
2023-05-13T07:56:48.137Z,65.20
2023-05-13T07:59:15.265Z,65.00
2023-05-13T08:01:43.249Z,64.80
2023-05-13T08:04:10.874Z,62.20
2023-05-13T08:06:38.400Z,61.40
2023-05-13T08:09:06.534Z,60.70
2023-05-13T08:11:33.976Z,60.00
2023-05-13T08:14:01.203Z,58.90
2023-05-13T08:16:28.449Z,58.50
2023-05-13T08:18:55.764Z,57.30
2023-05-13T08:21:23.082Z,57.50
2023-05-13T08:23:52.155Z,58.20
2023-05-13T08:26:19.648Z,59.00
2023-05-13T08:28:48.026Z,58.90
2023-05-13T08:31:15.505Z,57.40
2023-05-13T08:33:44.763Z,57.90
2023-05-13T08:36:11.962Z,58.50
2023-05-13T08:38:39.248Z,56.10
2023-05-13T08:41:07.758Z,56.20
2023-05-13T08:43:38.395Z,54.90
2023-05-13T08:46:10.208Z,56.10
2023-05-13T08:48:39.969Z,56.20
2023-05-13T08:51:08.496Z,56.30
2023-05-13T08:53:36.373Z,55.80
2023-05-13T08:56:05.643Z,56.10
2023-05-13T08:58:32.844Z,54.20
2023-05-13T09:01:00.020Z,53.80
2023-05-13T09:03:29.131Z,53.90
2023-05-13T09:05:56.458Z,54.00
2023-05-13T09:08:23.592Z,52.90
2023-05-13T09:10:50.918Z,52.90
2023-05-13T09:13:18.687Z,51.30
2023-05-13T09:15:45.940Z,52.10
2023-05-13T09:18:18.021Z,50.10
2023-05-13T09:20:46.817Z,50.40
2023-05-13T09:23:16.005Z,49.00
2023-05-13T09:25:43.448Z,48.70
2023-05-13T09:28:15.143Z,49.30
2023-05-13T09:30:46.235Z,49.30
2023-05-13T09:33:21.674Z,48.70
2023-05-13T09:35:53.733Z,48.70
2023-05-13T09:38:26.891Z,48.10
2023-05-13T09:40:56.440Z,48.60
2023-05-13T09:43:32.228Z,48.50
2023-05-13T09:46:04.964Z,47.80
2023-05-13T09:48:34.346Z,48.30
2023-05-13T09:51:01.953Z,47.60
2023-05-13T09:53:29.363Z,46.20
2023-05-13T09:55:57.988Z,47.20
2023-05-13T09:58:30.921Z,46.40
2023-05-13T10:00:58.861Z,46.80
2023-05-13T10:03:27.828Z,46.80
2023-05-13T10:05:55.282Z,44.70
2023-05-13T10:08:23.705Z,44.50
2023-05-13T10:10:55.665Z,45.30
2023-05-13T10:13:24.757Z,45.70
2023-05-13T10:15:54.973Z,46.30
2023-05-13T10:18:26.422Z,44.90
2023-05-13T10:20:54.863Z,44.60
2023-05-13T10:23:24.312Z,45.20
2023-05-13T10:25:54.934Z,43.90
2023-05-13T10:28:22.506Z,43.00
2023-05-13T10:30:53.912Z,42.70
2023-05-13T10:33:22.022Z,43.90
2023-05-13T10:36:00.810Z,43.80
2023-05-13T10:38:58.816Z,41.70
2023-05-13T10:42:00.193Z,40.10
2023-05-13T10:44:27.865Z,39.50
2023-05-13T10:46:57.045Z,38.40
2023-05-13T10:49:27.341Z,37.20
2023-05-13T10:52:08.462Z,35.80
2023-05-13T10:54:41.988Z,34.60
2023-05-13T10:57:10.517Z,34.40
2023-05-13T11:00:16.656Z,34.80
2023-05-13T11:02:44.457Z,35.50
2023-05-13T11:05:21.229Z,35.00
2023-05-13T11:07:56.947Z,35.00
2023-05-13T11:10:31.775Z,33.20
2023-05-13T11:13:14.234Z,33.80
2023-05-13T11:15:55.597Z,33.50
2023-05-13T11:18:31.368Z,33.60
2023-05-13T11:21:05.619Z,32.10
2023-05-13T11:23:58.793Z,31.80
2023-05-13T11:26:26.817Z,32.70
2023-05-13T11:29:00.268Z,32.90
2023-05-13T11:31:28.772Z,32.90
2023-05-13T11:34:17.378Z,32.40
2023-05-13T11:36:50.091Z,33.10
2023-05-13T11:39:19.952Z,32.90
2023-05-13T11:41:51.731Z,32.80
2023-05-13T11:44:22.326Z,32.60
2023-05-13T11:47:09.827Z,33.10
2023-05-13T11:49:42.204Z,32.50
2023-05-13T11:52:15.301Z,33.00
2023-05-13T11:54:53.811Z,33.10
2023-05-13T11:57:32.486Z,34.70
2023-05-13T12:00:08.723Z,33.20
2023-05-13T12:02:40.735Z,31.40
2023-05-13T12:05:11.167Z,29.70
2023-05-13T12:07:39.645Z,29.60
2023-05-13T12:10:08.140Z,28.90
2023-05-13T12:12:45.540Z,28.50
2023-05-13T12:15:22.852Z,28.60
2023-05-13T12:17:50.405Z,29.10
2023-05-13T12:41:12.994Z,29.30
2023-05-13T12:43:41.143Z,28.90
2023-05-13T12:46:08.346Z,28.60
2023-05-13T12:48:35.640Z,28.50
2023-05-13T12:51:02.756Z,28.20
2023-05-13T12:53:29.870Z,28.20
2023-05-13T12:55:57.008Z,28.00
2023-05-13T12:58:24.102Z,28.20
2023-05-13T13:00:51.449Z,28.70
2023-05-13T13:03:19.919Z,27.90
2023-05-13T13:05:48.384Z,27.90
2023-05-13T13:08:15.554Z,27.90
2023-05-13T13:10:42.760Z,28.90
2023-05-13T13:13:09.914Z,29.60
2023-05-13T13:15:37.785Z,29.40
2023-05-13T13:18:05.743Z,28.50
2023-05-13T13:20:34.462Z,28.60
2023-05-13T13:23:02.125Z,28.40
2023-05-13T13:25:29.448Z,28.20
2023-05-13T13:27:56.594Z,28.80
2023-05-13T13:30:23.870Z,29.50
2023-05-13T13:32:51.109Z,29.00
2023-05-13T13:35:18.388Z,29.80
2023-05-13T13:37:45.543Z,31.20
2023-05-13T13:40:13.476Z,31.90
2023-05-13T13:42:44.740Z,30.80
2023-05-13T13:45:13.704Z,29.50
2023-05-13T13:47:41.694Z,29.70
2023-05-13T13:50:10.450Z,30.60
2023-05-13T13:52:37.608Z,32.70
2023-05-13T13:55:05.486Z,33.80
2023-05-13T14:23:45.360Z,37.00
2023-05-13T14:26:15.333Z,37.20
2023-05-13T14:28:45.848Z,37.70
2023-05-13T14:31:12.968Z,37.40
2023-05-13T14:33:40.053Z,38.00
2023-05-13T14:36:09.414Z,38.30
2023-05-13T14:38:37.499Z,38.80
2023-05-13T14:41:04.610Z,38.30
2023-05-13T14:43:31.773Z,38.70
2023-05-13T14:45:59.026Z,38.80
2023-05-13T14:48:26.800Z,39.20
2023-05-13T14:50:54.100Z,39.70
2023-05-13T14:53:21.389Z,40.40
2023-05-13T14:55:50.644Z,41.30
2023-05-13T14:58:18.460Z,42.30
2023-05-13T15:00:45.699Z,42.30
2023-05-13T15:03:13.010Z,42.40
2023-05-13T15:05:44.599Z,42.20
2023-05-13T15:08:12.102Z,42.10
2023-05-13T15:10:39.215Z,42.00
2023-05-13T15:13:06.287Z,42.60
2023-05-13T15:15:33.642Z,43.10
2023-05-13T15:18:00.863Z,43.40
2023-05-13T15:20:28.602Z,43.60
2023-05-13T15:22:57.853Z,43.80
2023-05-13T15:25:25.090Z,43.70
2023-05-13T15:27:52.145Z,43.10
2023-05-13T15:30:19.371Z,43.30
2023-05-13T15:32:46.650Z,43.20
2023-05-13T15:35:16.404Z,43.30
2023-05-13T15:37:43.591Z,43.40
2023-05-13T15:40:12.357Z,43.20
2023-05-13T15:42:39.527Z,43.70
2023-05-13T15:45:07.556Z,43.40
2023-05-13T15:47:36.033Z,44.00
2023-05-13T15:50:05.086Z,43.90
2023-05-13T15:52:33.526Z,44.30
2023-05-13T15:55:01.028Z,43.40
2023-05-13T15:57:28.239Z,44.10
2023-05-13T15:59:55.391Z,43.80
2023-05-13T16:02:22.794Z,44.20
2023-05-13T16:04:58.501Z,44.10
2023-05-13T16:07:25.686Z,44.20
2023-05-13T16:09:52.983Z,44.40
2023-05-13T16:12:20.849Z,44.50
2023-05-13T16:14:48.056Z,44.80
2023-05-13T16:17:29.825Z,44.60
2023-05-13T16:19:57.285Z,44.70
2023-05-13T16:22:47.852Z,44.60
2023-05-13T16:25:18.950Z,44.60
2023-05-13T16:27:46.553Z,44.40
2023-05-13T16:30:13.890Z,44.00
2023-05-13T16:32:41.100Z,44.20
2023-05-13T16:35:11.599Z,43.80
2023-05-13T16:37:39.693Z,44.00
2023-05-13T16:40:10.969Z,44.10
2023-05-13T16:42:38.154Z,44.50
2023-05-13T16:45:07.298Z,44.70
2023-05-13T16:47:34.606Z,44.90
2023-05-13T16:50:01.737Z,44.50
2023-05-13T16:52:34.238Z,44.80
2023-05-13T16:55:03.061Z,45.60
2023-05-13T16:57:30.554Z,45.40
2023-05-13T16:59:58.392Z,45.40
2023-05-13T17:02:25.738Z,45.70
2023-05-13T17:04:53.412Z,46.00
2023-05-13T17:07:20.588Z,46.30
2023-05-13T17:09:48.171Z,46.80
2023-05-13T17:12:18.683Z,47.10
2023-05-13T17:14:46.148Z,47.20
2023-05-13T17:17:15.958Z,47.70
2023-05-13T17:19:47.754Z,47.80
2023-05-13T17:22:14.943Z,47.80
2023-05-13T17:24:42.153Z,47.50
2023-05-13T17:27:12.468Z,47.50
2023-05-13T17:29:42.676Z,47.40
2023-05-13T17:32:09.987Z,47.50
2023-05-13T17:34:40.426Z,47.70
2023-05-13T17:37:08.144Z,47.80
2023-05-13T17:39:35.732Z,48.00
2023-05-13T17:42:02.995Z,47.90
2023-05-13T17:44:30.359Z,48.00
2023-05-13T17:46:57.728Z,48.30
2023-05-13T17:49:27.139Z,48.20
2023-05-13T17:51:54.428Z,48.50
2023-05-13T17:54:21.659Z,48.40
2023-05-13T17:56:49.954Z,48.60
2023-05-13T17:59:17.279Z,48.90
2023-05-13T18:01:44.726Z,49.20
2023-05-13T18:04:12.244Z,49.40
2023-05-13T18:06:39.765Z,49.50
2023-05-13T18:09:08.162Z,49.80
2023-05-13T18:11:35.523Z,50.10
2023-05-13T18:14:03.199Z,49.90
2023-05-13T18:16:30.542Z,50.10
2023-05-13T18:18:57.783Z,49.90
2023-05-13T18:21:27.325Z,50.20
2023-05-13T18:23:54.859Z,50.50
2023-05-13T18:26:23.083Z,50.90
2023-05-13T18:28:50.368Z,51.60
2023-05-13T18:31:17.657Z,51.40
2023-05-13T18:33:44.859Z,51.60
2023-05-13T18:36:12.024Z,51.90
2023-05-13T18:38:39.655Z,52.10
2023-05-13T18:41:06.845Z,52.30
2023-05-13T18:43:34.166Z,52.80
2023-05-13T18:46:01.405Z,53.20
2023-05-13T18:48:28.539Z,53.20
2023-05-13T18:50:55.992Z,53.60
2023-05-13T18:53:23.114Z,54.30
2023-05-13T18:55:50.354Z,54.10
2023-05-13T18:58:17.570Z,54.30
2023-05-13T19:00:44.758Z,54.40
2023-05-13T19:03:12.253Z,54.20
2023-05-13T19:05:39.508Z,54.20
2023-05-13T19:08:08.014Z,54.30
2023-05-13T19:10:40.011Z,54.40
2023-05-13T19:13:08.019Z,54.30
2023-05-13T19:15:35.652Z,54.20
2023-05-13T19:18:03.173Z,53.80
2023-05-13T19:20:30.583Z,53.80
2023-05-13T19:22:57.912Z,53.60
2023-05-13T19:25:25.083Z,53.70
2023-05-13T19:27:52.346Z,53.70
2023-05-13T19:30:19.567Z,54.00
2023-05-13T19:32:46.981Z,53.90
2023-05-13T19:35:14.506Z,54.20
2023-05-13T19:37:41.748Z,54.40
2023-05-13T19:40:10.181Z,54.30
2023-05-13T19:42:37.884Z,54.40
2023-05-13T19:45:07.492Z,54.50
2023-05-13T19:47:37.982Z,54.60
2023-05-13T19:50:06.314Z,54.80
2023-05-13T19:52:34.036Z,54.90
2023-05-13T19:55:01.945Z,55.00
2023-05-13T19:57:30.138Z,55.20
2023-05-13T19:59:59.192Z,55.40
2023-05-13T20:02:26.351Z,55.50
2023-05-13T20:05:01.908Z,55.60
2023-05-13T20:07:32.792Z,55.80
2023-05-13T20:09:59.939Z,56.00
2023-05-13T20:12:27.214Z,56.20
2023-05-13T20:14:58.684Z,56.30
2023-05-13T20:17:27.272Z,56.40
2023-05-13T20:19:55.732Z,56.50
2023-05-13T20:22:23.333Z,57.00
2023-05-13T20:24:51.688Z,57.00
2023-05-13T20:27:19.068Z,57.60
2023-05-13T20:29:48.780Z,58.10
2023-05-13T20:32:24.447Z,58.50
2023-05-13T20:34:52.775Z,58.70
2023-05-13T20:37:23.498Z,58.60
2023-05-13T20:39:51.918Z,59.20
2023-05-13T20:42:21.502Z,59.00
2023-05-13T20:44:49.261Z,59.10
2023-05-13T20:47:16.702Z,59.10
2023-05-13T20:49:44.002Z,59.20
2023-05-13T20:52:11.501Z,59.40
2023-05-13T20:54:39.513Z,59.60
2023-05-13T20:57:06.858Z,59.60
2023-05-13T20:59:34.697Z,60.00
2023-05-13T21:02:02.070Z,60.00
2023-05-13T21:04:29.545Z,61.00
2023-05-13T21:06:57.416Z,60.80
2023-05-13T21:09:24.760Z,61.00
2023-05-13T21:11:52.084Z,60.90
2023-05-13T21:14:19.380Z,61.40
2023-05-13T21:16:46.633Z,61.50
2023-05-13T21:19:22.738Z,62.00
2023-05-13T21:21:50.755Z,62.10
2023-05-13T21:24:19.322Z,65.20
2023-05-13T21:26:47.432Z,63.40
2023-05-13T21:29:15.205Z,64.20
2023-05-13T21:31:43.488Z,64.20
2023-05-13T21:34:10.867Z,64.00
2023-05-13T21:36:41.396Z,64.30
2023-05-13T21:39:10.378Z,64.60
2023-05-13T21:41:37.857Z,64.80
2023-05-13T21:44:05.371Z,65.20
2023-05-13T21:46:32.696Z,65.50
2023-05-13T21:49:00.541Z,65.60
2023-05-13T21:51:28.937Z,65.90
2023-05-13T21:53:56.159Z,66.20
2023-05-13T21:56:23.273Z,66.70
2023-05-13T21:58:50.631Z,67.30
2023-05-13T22:01:18.352Z,67.90
2023-05-13T22:03:45.644Z,68.00
2023-05-13T22:06:13.969Z,69.20
2023-05-13T22:08:41.086Z,69.60
2023-05-13T22:11:08.354Z,70.40
2023-05-13T22:13:35.704Z,70.60
2023-05-13T22:16:02.912Z,70.90
2023-05-13T22:18:30.300Z,71.90
2023-05-13T22:20:59.538Z,72.10
2023-05-13T22:23:27.318Z,72.60
2023-05-13T22:25:54.802Z,74.00
2023-05-13T22:28:22.379Z,75.20
2023-05-13T22:30:52.734Z,75.30
2023-05-13T22:33:19.848Z,76.10
2023-05-13T22:35:47.227Z,75.60
2023-05-13T22:38:14.418Z,77.00
2023-05-13T22:40:42.748Z,77.20
2023-05-13T22:43:09.868Z,78.10
2023-05-13T22:45:37.760Z,79.10
2023-05-13T22:48:05.434Z,81.30
2023-05-13T22:50:32.901Z,81.80
2023-05-13T22:53:02.857Z,82.10
2023-05-13T22:55:30.047Z,82.40
2023-05-13T22:57:57.360Z,83.00
2023-05-13T23:00:25.013Z,84.10
2023-05-13T23:02:52.454Z,85.60
2023-05-13T23:05:19.705Z,85.30
2023-05-13T23:07:46.886Z,85.60
2023-05-13T23:10:14.021Z,86.30
2023-05-13T23:12:42.573Z,86.80
2023-05-13T23:15:11.773Z,88.10
2023-05-13T23:17:38.958Z,89.60
2023-05-13T23:20:07.037Z,90.50
2023-05-13T23:22:34.356Z,91.10
2023-05-13T23:25:01.556Z,91.60
2023-05-13T23:27:31.445Z,92.10
2023-05-13T23:29:59.486Z,92.80
2023-05-13T23:32:26.736Z,93.80
2023-05-13T23:34:53.867Z,94.80
2023-05-13T23:37:22.086Z,95.80
2023-05-13T23:39:49.248Z,96.50
2023-05-13T23:42:17.007Z,97.30
2023-05-13T23:44:44.351Z,98.20
2023-05-13T23:47:12.076Z,99.20
2023-05-13T23:49:39.253Z,99.90
2023-05-13T23:52:06.584Z,99.90
2023-05-13T23:54:34.032Z,99.90
2023-05-13T23:57:01.149Z,99.90
2023-05-13T23:59:28.307Z,99.90
